GMMX

Details ICAO GMMX (RAK)
Name MENARA
Region Morocco
Timezone Africa/Casablanca (UTC+0.0)
Plans Departing 247
Arriving 327
Stats Elevation 1,545 ft / 471 m (AMSL)
Location 31.606920° -8.036265°
Runways 1
Magnetic Variation 2.000° W
Sunrise 2017-12-12 07:23:46 UTC / 2017-12-12 07:23:46 Local
Sunset 2017-12-12 17:30:52 UTC / 2017-12-12 17:30:52 Local
Advertisement - Login to hide

Runways

ID Width Length Bearing (true) Bearing (mag) Surface Threshold Offset Overrun Length
10 148 ft / 45 m 10,169 ft / 3,100 m 95.99° 97.99° Asphalt 918 ft / 280 m 0 ft / 0 m
28 148 ft / 45 m 10,169 ft / 3,100 m 276.00° 278.00° Asphalt 0 ft / 0 m 0 ft / 0 m

Approach Navaids

Runway Type Ident Frequency Range Bearing (true) Bearing (mag) Slope Elevation
10 Localiser MAR 109.70 MHz 18 nm / 33 km 96.03° 98.03° - 1,545 ft / 471 m (AMSL)
10 Glidescope MAR 109.70 MHz 10 nm / 19 km 96.00° 98.00° 3.00° 1,558 ft / 475 m (AMSL)

Map

Weather


0- 5 10 15 20 25 30 35+ Temperature / ° C

Clouds and Precipitation
Forecast for 2017-12-12 00:00 UTC. Updated 2 hours ago

Ground ~20,000 ft ~40,000 ft Winds

METAR

GMMX 120100Z 00000KT 9999 SCT020 SCT080 08/06 Q1012 NIOSIG

TAF

TAF GMMX 112300Z 1200/1306 16006KT 8000 SCT023 SCT090 TEMPO 1214/1220 30015KT

Frequencies

Tower 118.70 MHz MARRAKECH TWR
Approach 119.70 MHz MARRAKECH APP
Warning: Do not use this data for real-world aviation or navigation. No guarantee of current accuracy is given.